sensor_id;sensor_type;location;lat;lon;timestamp;temperature;humidity
11855;DHT22;5987;53.140;8.904;2022-07-29T00:00:02;14.50;99.90
11855;DHT22;5987;53.140;8.904;2022-07-29T00:03:06;14.50;99.90
11855;DHT22;5987;53.140;8.904;2022-07-29T00:06:12;14.50;99.90
11855;DHT22;5987;53.140;8.904;2022-07-29T00:09:16;14.40;99.90
11855;DHT22;5987;53.140;8.904;2022-07-29T00:12:20;14.50;99.90
11855;DHT22;5987;53.140;8.904;2022-07-29T00:15:27;14.50;99.90
11855;DHT22;5987;53.140;8.904;2022-07-29T00:18:31;14.50;99.90
11855;DHT22;5987;53.140;8.904;2022-07-29T00:21:36;14.40;99.90
11855;DHT22;5987;53.140;8.904;2022-07-29T00:24:40;14.40;99.90
11855;DHT22;5987;53.140;8.904;2022-07-29T00:27:43;14.30;99.90
11855;DHT22;5987;53.140;8.904;2022-07-29T00:30:48;14.30;99.90
11855;DHT22;5987;53.140;8.904;2022-07-29T00:33:51;14.20;99.90
11855;DHT22;5987;53.140;8.904;2022-07-29T00:36:57;14.20;99.90
11855;DHT22;5987;53.140;8.904;2022-07-29T00:40:00;14.30;99.90
11855;DHT22;5987;53.140;8.904;2022-07-29T00:43:04;14.20;99.90
11855;DHT22;5987;53.140;8.904;2022-07-29T00:46:07;14.20;99.90
11855;DHT22;5987;53.140;8.904;2022-07-29T00:49:12;14.20;99.90
11855;DHT22;5987;53.140;8.904;2022-07-29T00:52:17;14.20;99.90
11855;DHT22;5987;53.140;8.904;2022-07-29T00:55:21;14.20;99.90
11855;DHT22;5987;53.140;8.904;2022-07-29T00:58:26;14.20;99.90
11855;DHT22;5987;53.140;8.904;2022-07-29T01:01:30;14.20;99.90
11855;DHT22;5987;53.140;8.904;2022-07-29T01:04:34;14.10;99.90
11855;DHT22;5987;53.140;8.904;2022-07-29T01:07:39;14.10;99.90
11855;DHT22;5987;53.140;8.904;2022-07-29T01:10:46;14.10;99.90
11855;DHT22;5987;53.140;8.904;2022-07-29T01:13:50;14.10;99.90
11855;DHT22;5987;53.140;8.904;2022-07-29T01:17:10;14.10;99.90
11855;DHT22;5987;53.140;8.904;2022-07-29T01:20:24;14.10;99.90
11855;DHT22;5987;53.140;8.904;2022-07-29T01:23:56;14.00;99.90
11855;DHT22;5987;53.140;8.904;2022-07-29T01:27:26;14.00;99.90
11855;DHT22;5987;53.140;8.904;2022-07-29T01:30:44;14.10;99.90
11855;DHT22;5987;53.140;8.904;2022-07-29T01:33:58;14.00;99.90
11855;DHT22;5987;53.140;8.904;2022-07-29T01:37:11;14.10;99.90
11855;DHT22;5987;53.140;8.904;2022-07-29T01:40:20;14.10;99.90
11855;DHT22;5987;53.140;8.904;2022-07-29T01:43:33;14.10;99.90
11855;DHT22;5987;53.140;8.904;2022-07-29T01:46:48;14.10;99.90
11855;DHT22;5987;53.140;8.904;2022-07-29T01:49:56;14.10;99.90
11855;DHT22;5987;53.140;8.904;2022-07-29T01:53:05;14.20;99.90
11855;DHT22;5987;53.140;8.904;2022-07-29T01:56:12;14.20;99.90
11855;DHT22;5987;53.140;8.904;2022-07-29T01:59:20;14.10;99.90
11855;DHT22;5987;53.140;8.904;2022-07-29T02:02:28;14.10;99.90
11855;DHT22;5987;53.140;8.904;2022-07-29T02:05:36;14.10;99.90
11855;DHT22;5987;53.140;8.904;2022-07-29T02:08:42;13.90;99.90
11855;DHT22;5987;53.140;8.904;2022-07-29T02:11:51;14.10;99.90
11855;DHT22;5987;53.140;8.904;2022-07-29T02:15:01;14.20;99.90
11855;DHT22;5987;53.140;8.904;2022-07-29T02:18:10;14.20;99.90
11855;DHT22;5987;53.140;8.904;2022-07-29T02:21:23;14.10;99.90
11855;DHT22;5987;53.140;8.904;2022-07-29T02:24:28;14.10;99.90
11855;DHT22;5987;53.140;8.904;2022-07-29T02:27:35;14.20;99.90
11855;DHT22;5987;53.140;8.904;2022-07-29T02:30:42;14.10;99.90
11855;DHT22;5987;53.140;8.904;2022-07-29T02:33:49;14.10;99.90
11855;DHT22;5987;53.140;8.904;2022-07-29T02:36:55;14.10;99.90
11855;DHT22;5987;53.140;8.904;2022-07-29T02:39:59;14.20;99.90
11855;DHT22;5987;53.140;8.904;2022-07-29T02:43:05;14.20;99.90
11855;DHT22;5987;53.140;8.904;2022-07-29T02:46:14;14.20;99.90
11855;DHT22;5987;53.140;8.904;2022-07-29T02:49:36;14.20;99.90
11855;DHT22;5987;53.140;8.904;2022-07-29T02:52:43;14.20;99.90
11855;DHT22;5987;53.140;8.904;2022-07-29T02:55:55;14.20;99.90
11855;DHT22;5987;53.140;8.904;2022-07-29T02:59:02;14.20;99.90
11855;DHT22;5987;53.140;8.904;2022-07-29T03:02:09;14.20;99.90
11855;DHT22;5987;53.140;8.904;2022-07-29T03:05:19;14.20;99.90
11855;DHT22;5987;53.140;8.904;2022-07-29T03:08:24;14.20;99.90
11855;DHT22;5987;53.140;8.904;2022-07-29T03:11:30;14.20;99.90
11855;DHT22;5987;53.140;8.904;2022-07-29T03:14:51;14.10;99.90
11855;DHT22;5987;53.140;8.904;2022-07-29T03:17:56;14.10;99.90
11855;DHT22;5987;53.140;8.904;2022-07-29T03:21:03;14.20;99.90
11855;DHT22;5987;53.140;8.904;2022-07-29T03:24:07;14.30;99.90
11855;DHT22;5987;53.140;8.904;2022-07-29T03:27:12;14.20;99.90
11855;DHT22;5987;53.140;8.904;2022-07-29T03:30:16;14.20;99.90
11855;DHT22;5987;53.140;8.904;2022-07-29T03:33:23;14.20;99.90
11855;DHT22;5987;53.140;8.904;2022-07-29T03:36:28;14.20;99.90
11855;DHT22;5987;53.140;8.904;2022-07-29T03:39:36;14.20;99.90
11855;DHT22;5987;53.140;8.904;2022-07-29T03:42:44;14.20;99.90
11855;DHT22;5987;53.140;8.904;2022-07-29T03:45:52;14.20;99.90
11855;DHT22;5987;53.140;8.904;2022-07-29T03:49:00;14.20;99.90
11855;DHT22;5987;53.140;8.904;2022-07-29T03:52:07;14.20;99.90
11855;DHT22;5987;53.140;8.904;2022-07-29T03:55:12;14.20;99.90
11855;DHT22;5987;53.140;8.904;2022-07-29T03:58:18;14.20;99.90
11855;DHT22;5987;53.140;8.904;2022-07-29T04:01:23;14.20;99.90
11855;DHT22;5987;53.140;8.904;2022-07-29T04:04:27;14.30;99.90
11855;DHT22;5987;53.140;8.904;2022-07-29T04:07:33;14.30;99.90
11855;DHT22;5987;53.140;8.904;2022-07-29T04:10:37;14.30;99.90
11855;DHT22;5987;53.140;8.904;2022-07-29T04:13:41;14.30;99.90
11855;DHT22;5987;53.140;8.904;2022-07-29T04:16:45;14.30;99.90
11855;DHT22;5987;53.140;8.904;2022-07-29T04:19:49;14.30;99.90
11855;DHT22;5987;53.140;8.904;2022-07-29T04:22:54;14.30;99.90
11855;DHT22;5987;53.140;8.904;2022-07-29T04:25:57;14.40;99.90
11855;DHT22;5987;53.140;8.904;2022-07-29T04:29:02;14.40;99.90
11855;DHT22;5987;53.140;8.904;2022-07-29T04:32:06;14.50;99.90
11855;DHT22;5987;53.140;8.904;2022-07-29T04:35:10;14.50;99.90
11855;DHT22;5987;53.140;8.904;2022-07-29T04:38:15;14.60;99.90
11855;DHT22;5987;53.140;8.904;2022-07-29T04:41:18;14.50;99.90
11855;DHT22;5987;53.140;8.904;2022-07-29T04:44:22;14.60;99.90
11855;DHT22;5987;53.140;8.904;2022-07-29T04:47:29;14.60;99.90
11855;DHT22;5987;53.140;8.904;2022-07-29T04:50:33;14.50;99.90
11855;DHT22;5987;53.140;8.904;2022-07-29T04:53:38;14.60;99.90
11855;DHT22;5987;53.140;8.904;2022-07-29T04:56:42;14.60;99.90
11855;DHT22;5987;53.140;8.904;2022-07-29T04:59:45;14.60;99.90
11855;DHT22;5987;53.140;8.904;2022-07-29T05:02:50;14.60;99.90
11855;DHT22;5987;53.140;8.904;2022-07-29T05:05:55;14.60;99.90
11855;DHT22;5987;53.140;8.904;2022-07-29T05:09:00;14.70;99.90
11855;DHT22;5987;53.140;8.904;2022-07-29T05:12:04;14.70;99.90
11855;DHT22;5987;53.140;8.904;2022-07-29T05:15:09;14.70;99.90
11855;DHT22;5987;53.140;8.904;2022-07-29T05:18:13;14.70;99.90
11855;DHT22;5987;53.140;8.904;2022-07-29T05:21:17;14.80;99.90
11855;DHT22;5987;53.140;8.904;2022-07-29T05:24:22;14.80;99.90
11855;DHT22;5987;53.140;8.904;2022-07-29T05:27:26;14.90;99.90
11855;DHT22;5987;53.140;8.904;2022-07-29T05:30:29;15.00;99.90
11855;DHT22;5987;53.140;8.904;2022-07-29T05:33:33;15.00;99.90
11855;DHT22;5987;53.140;8.904;2022-07-29T05:36:38;15.10;99.90
11855;DHT22;5987;53.140;8.904;2022-07-29T05:39:43;15.30;99.90
11855;DHT22;5987;53.140;8.904;2022-07-29T05:42:51;15.40;99.90
11855;DHT22;5987;53.140;8.904;2022-07-29T05:45:55;15.50;99.90
11855;DHT22;5987;53.140;8.904;2022-07-29T05:48:59;15.60;99.90
11855;DHT22;5987;53.140;8.904;2022-07-29T05:52:04;15.60;99.90
11855;DHT22;5987;53.140;8.904;2022-07-29T05:55:10;15.80;99.90
11855;DHT22;5987;53.140;8.904;2022-07-29T05:58:14;15.80;99.90
11855;DHT22;5987;53.140;8.904;2022-07-29T06:01:18;15.90;99.90
11855;DHT22;5987;53.140;8.904;2022-07-29T06:04:22;16.00;99.90
11855;DHT22;5987;53.140;8.904;2022-07-29T06:07:25;16.00;99.90
11855;DHT22;5987;53.140;8.904;2022-07-29T06:10:30;16.00;99.90
11855;DHT22;5987;53.140;8.904;2022-07-29T06:13:34;16.10;99.90
11855;DHT22;5987;53.140;8.904;2022-07-29T06:16:38;16.20;99.90
11855;DHT22;5987;53.140;8.904;2022-07-29T06:19:42;16.20;99.90
11855;DHT22;5987;53.140;8.904;2022-07-29T06:22:45;16.20;99.90
11855;DHT22;5987;53.140;8.904;2022-07-29T06:25:50;16.30;99.90
11855;DHT22;5987;53.140;8.904;2022-07-29T06:28:54;16.40;99.90
11855;DHT22;5987;53.140;8.904;2022-07-29T06:31:58;16.60;99.90
11855;DHT22;5987;53.140;8.904;2022-07-29T06:35:02;16.60;99.90
11855;DHT22;5987;53.140;8.904;2022-07-29T06:38:26;16.60;99.90
11855;DHT22;5987;53.140;8.904;2022-07-29T06:41:36;16.70;99.90
11855;DHT22;5987;53.140;8.904;2022-07-29T06:44:39;16.80;99.90
11855;DHT22;5987;53.140;8.904;2022-07-29T06:47:43;16.80;99.90
11855;DHT22;5987;53.140;8.904;2022-07-29T06:50:47;16.90;99.90
11855;DHT22;5987;53.140;8.904;2022-07-29T06:53:52;17.00;99.90
11855;DHT22;5987;53.140;8.904;2022-07-29T06:57:05;17.00;99.90
11855;DHT22;5987;53.140;8.904;2022-07-29T07:00:10;17.00;99.90
11855;DHT22;5987;53.140;8.904;2022-07-29T07:03:14;17.10;99.90
11855;DHT22;5987;53.140;8.904;2022-07-29T07:06:18;17.20;99.90
11855;DHT22;5987;53.140;8.904;2022-07-29T07:09:22;17.50;99.90
11855;DHT22;5987;53.140;8.904;2022-07-29T07:12:42;17.60;99.90
11855;DHT22;5987;53.140;8.904;2022-07-29T07:15:46;17.80;99.90
11855;DHT22;5987;53.140;8.904;2022-07-29T07:18:50;18.00;99.90
11855;DHT22;5987;53.140;8.904;2022-07-29T07:21:54;18.30;99.90
11855;DHT22;5987;53.140;8.904;2022-07-29T07:24:58;18.40;99.90
11855;DHT22;5987;53.140;8.904;2022-07-29T07:28:03;18.60;99.90
11855;DHT22;5987;53.140;8.904;2022-07-29T07:31:07;18.70;99.90
11855;DHT22;5987;53.140;8.904;2022-07-29T07:34:12;19.00;99.90
11855;DHT22;5987;53.140;8.904;2022-07-29T07:37:16;19.30;99.90
11855;DHT22;5987;53.140;8.904;2022-07-29T07:40:21;19.60;99.90
11855;DHT22;5987;53.140;8.904;2022-07-29T07:43:26;20.00;99.90
11855;DHT22;5987;53.140;8.904;2022-07-29T07:46:30;20.50;99.90
11855;DHT22;5987;53.140;8.904;2022-07-29T07:49:34;21.00;99.90
11855;DHT22;5987;53.140;8.904;2022-07-29T07:52:46;21.40;99.90
11855;DHT22;5987;53.140;8.904;2022-07-29T07:55:52;21.40;99.70
11855;DHT22;5987;53.140;8.904;2022-07-29T07:59:14;21.20;99.90
11855;DHT22;5987;53.140;8.904;2022-07-29T08:02:19;21.30;99.30
11855;DHT22;5987;53.140;8.904;2022-07-29T08:05:23;21.20;98.90
11855;DHT22;5987;53.140;8.904;2022-07-29T08:08:27;21.00;99.40
11855;DHT22;5987;53.140;8.904;2022-07-29T08:11:30;20.80;99.90
11855;DHT22;5987;53.140;8.904;2022-07-29T08:14:40;20.80;99.60
11855;DHT22;5987;53.140;8.904;2022-07-29T08:17:44;20.90;99.80
11855;DHT22;5987;53.140;8.904;2022-07-29T08:20:47;20.90;99.90
11855;DHT22;5987;53.140;8.904;2022-07-29T08:23:51;21.10;99.40
11855;DHT22;5987;53.140;8.904;2022-07-29T08:27:15;21.10;99.00
11855;DHT22;5987;53.140;8.904;2022-07-29T08:30:41;21.30;98.10
11855;DHT22;5987;53.140;8.904;2022-07-29T08:33:44;21.80;98.40
11855;DHT22;5987;53.140;8.904;2022-07-29T08:36:48;22.70;95.80
11855;DHT22;5987;53.140;8.904;2022-07-29T08:39:52;23.30;93.30
11855;DHT22;5987;53.140;8.904;2022-07-29T08:42:56;23.90;91.70
11855;DHT22;5987;53.140;8.904;2022-07-29T08:46:01;24.60;88.00
11855;DHT22;5987;53.140;8.904;2022-07-29T08:49:05;24.90;84.20
11855;DHT22;5987;53.140;8.904;2022-07-29T08:52:10;25.00;82.30
11855;DHT22;5987;53.140;8.904;2022-07-29T08:55:15;25.10;83.50
11855;DHT22;5987;53.140;8.904;2022-07-29T08:58:22;25.00;80.40
11855;DHT22;5987;53.140;8.904;2022-07-29T09:01:29;25.10;80.70
11855;DHT22;5987;53.140;8.904;2022-07-29T09:04:43;25.00;78.10
11855;DHT22;5987;53.140;8.904;2022-07-29T09:07:48;24.70;80.20
11855;DHT22;5987;53.140;8.904;2022-07-29T09:10:52;24.70;79.10
11855;DHT22;5987;53.140;8.904;2022-07-29T09:13:57;25.00;77.40
11855;DHT22;5987;53.140;8.904;2022-07-29T09:17:03;24.80;80.10
11855;DHT22;5987;53.140;8.904;2022-07-29T09:20:09;25.40;77.50
11855;DHT22;5987;53.140;8.904;2022-07-29T09:23:14;25.80;75.50
11855;DHT22;5987;53.140;8.904;2022-07-29T09:26:28;26.10;74.80
11855;DHT22;5987;53.140;8.904;2022-07-29T09:29:32;26.40;72.90
11855;DHT22;5987;53.140;8.904;2022-07-29T09:32:57;26.50;70.60
11855;DHT22;5987;53.140;8.904;2022-07-29T09:36:04;26.00;71.80
11855;DHT22;5987;53.140;8.904;2022-07-29T09:39:09;25.90;73.60
11855;DHT22;5987;53.140;8.904;2022-07-29T09:42:14;25.90;74.30
11855;DHT22;5987;53.140;8.904;2022-07-29T09:45:34;26.30;74.40
11855;DHT22;5987;53.140;8.904;2022-07-29T09:48:41;26.90;73.20
11855;DHT22;5987;53.140;8.904;2022-07-29T09:51:44;26.80;70.90
11855;DHT22;5987;53.140;8.904;2022-07-29T09:54:48;26.20;72.60
11855;DHT22;5987;53.140;8.904;2022-07-29T09:57:52;25.70;74.80
11855;DHT22;5987;53.140;8.904;2022-07-29T10:00:56;25.40;73.70
11855;DHT22;5987;53.140;8.904;2022-07-29T10:04:02;24.90;73.90
11855;DHT22;5987;53.140;8.904;2022-07-29T10:07:06;24.60;74.90
11855;DHT22;5987;53.140;8.904;2022-07-29T10:10:10;24.40;77.20
11855;DHT22;5987;53.140;8.904;2022-07-29T10:13:14;24.40;76.60
11855;DHT22;5987;53.140;8.904;2022-07-29T10:16:18;24.50;75.90
11855;DHT22;5987;53.140;8.904;2022-07-29T10:19:23;24.60;75.70
11855;DHT22;5987;53.140;8.904;2022-07-29T10:22:28;24.80;75.00
11855;DHT22;5987;53.140;8.904;2022-07-29T10:25:51;25.00;74.10
11855;DHT22;5987;53.140;8.904;2022-07-29T10:28:56;25.00;73.70
11855;DHT22;5987;53.140;8.904;2022-07-29T10:36:02;25.20;73.10
11855;DHT22;5987;53.140;8.904;2022-07-29T10:39:23;25.20;71.80
11855;DHT22;5987;53.140;8.904;2022-07-29T10:42:51;25.20;72.70
11855;DHT22;5987;53.140;8.904;2022-07-29T10:45:59;25.20;72.20
11855;DHT22;5987;53.140;8.904;2022-07-29T10:49:11;25.20;73.40
11855;DHT22;5987;53.140;8.904;2022-07-29T10:52:18;25.10;71.10
11855;DHT22;5987;53.140;8.904;2022-07-29T10:55:33;25.00;71.80
11855;DHT22;5987;53.140;8.904;2022-07-29T10:58:38;25.00;72.80
11855;DHT22;5987;53.140;8.904;2022-07-29T11:01:54;25.00;72.80
11855;DHT22;5987;53.140;8.904;2022-07-29T11:05:19;25.00;74.70
11855;DHT22;5987;53.140;8.904;2022-07-29T11:08:25;25.10;70.90
11855;DHT22;5987;53.140;8.904;2022-07-29T11:11:33;25.20;70.00
11855;DHT22;5987;53.140;8.904;2022-07-29T11:14:58;25.50;70.40
11855;DHT22;5987;53.140;8.904;2022-07-29T11:18:07;25.60;69.50
11855;DHT22;5987;53.140;8.904;2022-07-29T11:21:35;25.90;68.30
11855;DHT22;5987;53.140;8.904;2022-07-29T11:25:14;26.00;66.60
11855;DHT22;5987;53.140;8.904;2022-07-29T11:28:57;26.10;67.50
11855;DHT22;5987;53.140;8.904;2022-07-29T11:32:10;26.30;67.30
11855;DHT22;5987;53.140;8.904;2022-07-29T11:35:20;26.40;67.10
11855;DHT22;5987;53.140;8.904;2022-07-29T11:38:41;26.30;66.10
11855;DHT22;5987;53.140;8.904;2022-07-29T11:41:46;26.40;66.20
11855;DHT22;5987;53.140;8.904;2022-07-29T11:44:54;26.60;66.30
11855;DHT22;5987;53.140;8.904;2022-07-29T11:47:59;26.80;63.90
11855;DHT22;5987;53.140;8.904;2022-07-29T11:51:23;27.00;64.00
11855;DHT22;5987;53.140;8.904;2022-07-29T11:54:34;27.00;64.10
11855;DHT22;5987;53.140;8.904;2022-07-29T11:58:02;26.90;63.80
11855;DHT22;5987;53.140;8.904;2022-07-29T12:01:06;26.90;64.20
11855;DHT22;5987;53.140;8.904;2022-07-29T12:04:10;26.90;61.90
11855;DHT22;5987;53.140;8.904;2022-07-29T12:07:14;26.70;60.50
11855;DHT22;5987;53.140;8.904;2022-07-29T12:10:19;26.50;60.10
11855;DHT22;5987;53.140;8.904;2022-07-29T12:13:38;26.50;60.50
11855;DHT22;5987;53.140;8.904;2022-07-29T12:16:42;26.60;61.20
11855;DHT22;5987;53.140;8.904;2022-07-29T12:19:46;26.70;61.60
11855;DHT22;5987;53.140;8.904;2022-07-29T12:22:52;26.80;60.40
11855;DHT22;5987;53.140;8.904;2022-07-29T12:25:58;26.70;60.00
11855;DHT22;5987;53.140;8.904;2022-07-29T12:29:04;26.60;59.70
11855;DHT22;5987;53.140;8.904;2022-07-29T12:32:12;26.50;59.70
11855;DHT22;5987;53.140;8.904;2022-07-29T12:35:21;26.30;60.20
11855;DHT22;5987;53.140;8.904;2022-07-29T12:38:25;26.30;61.30
11855;DHT22;5987;53.140;8.904;2022-07-29T12:41:29;26.30;60.10
11855;DHT22;5987;53.140;8.904;2022-07-29T12:44:49;26.20;60.30
11855;DHT22;5987;53.140;8.904;2022-07-29T12:47:53;26.30;60.80
11855;DHT22;5987;53.140;8.904;2022-07-29T12:50:59;26.40;60.20
11855;DHT22;5987;53.140;8.904;2022-07-29T12:54:07;26.50;59.90
11855;DHT22;5987;53.140;8.904;2022-07-29T12:57:13;26.50;59.80
11855;DHT22;5987;53.140;8.904;2022-07-29T13:00:23;26.30;59.80
11855;DHT22;5987;53.140;8.904;2022-07-29T13:03:28;26.40;60.60
11855;DHT22;5987;53.140;8.904;2022-07-29T13:06:39;26.50;61.30
11855;DHT22;5987;53.140;8.904;2022-07-29T13:09:46;26.70;60.30
11855;DHT22;5987;53.140;8.904;2022-07-29T13:13:04;27.00;60.70
11855;DHT22;5987;53.140;8.904;2022-07-29T13:16:11;27.50;60.00
11855;DHT22;5987;53.140;8.904;2022-07-29T13:19:15;27.80;59.90
11855;DHT22;5987;53.140;8.904;2022-07-29T13:22:20;27.90;59.70
11855;DHT22;5987;53.140;8.904;2022-07-29T13:25:27;28.00;59.70
11855;DHT22;5987;53.140;8.904;2022-07-29T13:28:31;27.90;59.50
11855;DHT22;5987;53.140;8.904;2022-07-29T13:31:37;27.30;59.50
11855;DHT22;5987;53.140;8.904;2022-07-29T13:34:41;26.90;60.90
11855;DHT22;5987;53.140;8.904;2022-07-29T13:37:45;26.80;62.10
11855;DHT22;5987;53.140;8.904;2022-07-29T13:40:49;26.80;62.80
11855;DHT22;5987;53.140;8.904;2022-07-29T13:43:52;26.90;62.50
11855;DHT22;5987;53.140;8.904;2022-07-29T13:46:57;26.90;62.30
11855;DHT22;5987;53.140;8.904;2022-07-29T13:50:03;26.80;63.50
11855;DHT22;5987;53.140;8.904;2022-07-29T13:53:08;26.90;63.20
11855;DHT22;5987;53.140;8.904;2022-07-29T13:56:18;27.00;63.00
11855;DHT22;5987;53.140;8.904;2022-07-29T13:59:22;27.00;63.30
11855;DHT22;5987;53.140;8.904;2022-07-29T14:02:27;27.10;62.90
11855;DHT22;5987;53.140;8.904;2022-07-29T14:05:32;27.30;61.90
11855;DHT22;5987;53.140;8.904;2022-07-29T14:08:35;27.10;62.00
11855;DHT22;5987;53.140;8.904;2022-07-29T14:11:39;26.90;63.30
11855;DHT22;5987;53.140;8.904;2022-07-29T14:14:43;26.90;62.90
11855;DHT22;5987;53.140;8.904;2022-07-29T14:17:49;26.80;62.20
11855;DHT22;5987;53.140;8.904;2022-07-29T14:20:53;26.80;62.40
11855;DHT22;5987;53.140;8.904;2022-07-29T14:23:57;26.60;62.20
11855;DHT22;5987;53.140;8.904;2022-07-29T14:27:01;26.50;62.30
11855;DHT22;5987;53.140;8.904;2022-07-29T14:30:06;26.40;63.10
11855;DHT22;5987;53.140;8.904;2022-07-29T14:33:12;26.40;63.80
11855;DHT22;5987;53.140;8.904;2022-07-29T14:36:16;26.40;64.40
11855;DHT22;5987;53.140;8.904;2022-07-29T14:39:19;26.50;63.20
11855;DHT22;5987;53.140;8.904;2022-07-29T14:42:23;26.50;63.30
11855;DHT22;5987;53.140;8.904;2022-07-29T14:45:27;26.50;63.70
11855;DHT22;5987;53.140;8.904;2022-07-29T14:48:32;26.60;64.20
11855;DHT22;5987;53.140;8.904;2022-07-29T14:51:37;26.60;64.40
11855;DHT22;5987;53.140;8.904;2022-07-29T14:54:41;26.60;64.40
11855;DHT22;5987;53.140;8.904;2022-07-29T14:57:44;26.40;65.50
11855;DHT22;5987;53.140;8.904;2022-07-29T15:00:48;26.50;63.90
11855;DHT22;5987;53.140;8.904;2022-07-29T15:03:53;26.40;63.50
11855;DHT22;5987;53.140;8.904;2022-07-29T15:07:00;26.40;63.90
11855;DHT22;5987;53.140;8.904;2022-07-29T15:10:05;26.40;63.50
11855;DHT22;5987;53.140;8.904;2022-07-29T15:13:09;26.30;64.00
11855;DHT22;5987;53.140;8.904;2022-07-29T15:16:12;26.30;64.00
11855;DHT22;5987;53.140;8.904;2022-07-29T15:19:18;26.20;64.00
11855;DHT22;5987;53.140;8.904;2022-07-29T15:22:21;26.00;64.40
11855;DHT22;5987;53.140;8.904;2022-07-29T15:25:25;25.90;64.40
11855;DHT22;5987;53.140;8.904;2022-07-29T15:28:29;25.80;63.90
11855;DHT22;5987;53.140;8.904;2022-07-29T15:31:33;25.70;64.00
11855;DHT22;5987;53.140;8.904;2022-07-29T15:34:38;25.70;64.10
11855;DHT22;5987;53.140;8.904;2022-07-29T15:37:42;25.60;64.50
11855;DHT22;5987;53.140;8.904;2022-07-29T15:40:50;25.60;65.10
11855;DHT22;5987;53.140;8.904;2022-07-29T15:43:54;25.50;65.50
11855;DHT22;5987;53.140;8.904;2022-07-29T15:46:57;25.50;66.00
11855;DHT22;5987;53.140;8.904;2022-07-29T15:50:09;25.50;66.00
11855;DHT22;5987;53.140;8.904;2022-07-29T15:53:16;25.30;66.40
11855;DHT22;5987;53.140;8.904;2022-07-29T15:56:20;25.20;67.60
11855;DHT22;5987;53.140;8.904;2022-07-29T15:59:24;25.20;66.90
11855;DHT22;5987;53.140;8.904;2022-07-29T16:02:29;25.30;67.60
11855;DHT22;5987;53.140;8.904;2022-07-29T16:05:34;25.20;68.10
11855;DHT22;5987;53.140;8.904;2022-07-29T16:08:38;25.20;68.10
11855;DHT22;5987;53.140;8.904;2022-07-29T16:11:42;25.10;68.50
11855;DHT22;5987;53.140;8.904;2022-07-29T16:14:48;25.20;68.80
11855;DHT22;5987;53.140;8.904;2022-07-29T16:17:53;25.20;69.10
11855;DHT22;5987;53.140;8.904;2022-07-29T16:20:58;25.30;69.70
11855;DHT22;5987;53.140;8.904;2022-07-29T16:24:02;25.20;70.90
11855;DHT22;5987;53.140;8.904;2022-07-29T16:27:06;25.10;71.60
11855;DHT22;5987;53.140;8.904;2022-07-29T16:30:10;25.00;72.60
11855;DHT22;5987;53.140;8.904;2022-07-29T16:33:14;25.00;73.10
11855;DHT22;5987;53.140;8.904;2022-07-29T16:36:20;25.00;73.40
11855;DHT22;5987;53.140;8.904;2022-07-29T16:39:28;24.90;73.70
11855;DHT22;5987;53.140;8.904;2022-07-29T16:42:38;24.80;74.20
11855;DHT22;5987;53.140;8.904;2022-07-29T16:45:49;24.70;74.80
11855;DHT22;5987;53.140;8.904;2022-07-29T16:48:53;24.60;74.90
11855;DHT22;5987;53.140;8.904;2022-07-29T16:51:58;24.50;75.50
11855;DHT22;5987;53.140;8.904;2022-07-29T16:55:02;24.40;76.50
11855;DHT22;5987;53.140;8.904;2022-07-29T16:58:07;24.30;77.00
11855;DHT22;5987;53.140;8.904;2022-07-29T17:01:11;24.20;77.40
11855;DHT22;5987;53.140;8.904;2022-07-29T17:04:15;24.10;78.70
11855;DHT22;5987;53.140;8.904;2022-07-29T17:07:21;24.00;77.70
11855;DHT22;5987;53.140;8.904;2022-07-29T17:10:24;24.00;77.70
11855;DHT22;5987;53.140;8.904;2022-07-29T17:13:29;23.90;77.60
11855;DHT22;5987;53.140;8.904;2022-07-29T17:16:33;23.90;77.20
11855;DHT22;5987;53.140;8.904;2022-07-29T17:19:37;23.90;79.20
11855;DHT22;5987;53.140;8.904;2022-07-29T17:22:42;23.80;81.60
11855;DHT22;5987;53.140;8.904;2022-07-29T17:25:46;23.40;83.30
11855;DHT22;5987;53.140;8.904;2022-07-29T17:28:50;23.10;86.00
11855;DHT22;5987;53.140;8.904;2022-07-29T17:31:54;22.80;88.40
11855;DHT22;5987;53.140;8.904;2022-07-29T17:34:58;22.60;90.60
11855;DHT22;5987;53.140;8.904;2022-07-29T17:38:03;22.20;93.00
11855;DHT22;5987;53.140;8.904;2022-07-29T17:41:07;21.90;96.60
11855;DHT22;5987;53.140;8.904;2022-07-29T17:44:11;21.70;99.90
11855;DHT22;5987;53.140;8.904;2022-07-29T17:47:15;21.50;99.90
11855;DHT22;5987;53.140;8.904;2022-07-29T17:50:18;21.50;99.90
11855;DHT22;5987;53.140;8.904;2022-07-29T17:53:23;21.50;99.90
11855;DHT22;5987;53.140;8.904;2022-07-29T17:56:27;21.40;99.90
11855;DHT22;5987;53.140;8.904;2022-07-29T17:59:31;21.50;99.90
11855;DHT22;5987;53.140;8.904;2022-07-29T18:02:34;21.60;99.90
11855;DHT22;5987;53.140;8.904;2022-07-29T18:05:39;21.50;99.90
11855;DHT22;5987;53.140;8.904;2022-07-29T18:08:44;21.50;99.90
11855;DHT22;5987;53.140;8.904;2022-07-29T18:11:48;21.50;99.90
11855;DHT22;5987;53.140;8.904;2022-07-29T18:14:52;21.50;99.90
11855;DHT22;5987;53.140;8.904;2022-07-29T18:17:56;21.50;99.90
11855;DHT22;5987;53.140;8.904;2022-07-29T18:21:00;21.50;99.90
11855;DHT22;5987;53.140;8.904;2022-07-29T18:24:06;21.60;99.90
11855;DHT22;5987;53.140;8.904;2022-07-29T18:27:10;21.70;99.90
11855;DHT22;5987;53.140;8.904;2022-07-29T18:30:14;21.70;99.90
11855;DHT22;5987;53.140;8.904;2022-07-29T18:33:18;21.80;99.90
11855;DHT22;5987;53.140;8.904;2022-07-29T18:36:23;21.80;99.90
11855;DHT22;5987;53.140;8.904;2022-07-29T18:39:28;21.70;99.90
11855;DHT22;5987;53.140;8.904;2022-07-29T18:42:32;21.70;99.90
11855;DHT22;5987;53.140;8.904;2022-07-29T18:45:36;21.70;99.90
11855;DHT22;5987;53.140;8.904;2022-07-29T18:48:40;21.60;99.90
11855;DHT22;5987;53.140;8.904;2022-07-29T18:51:44;21.60;99.90
11855;DHT22;5987;53.140;8.904;2022-07-29T18:54:49;21.60;99.90
11855;DHT22;5987;53.140;8.904;2022-07-29T18:57:53;21.50;99.90
11855;DHT22;5987;53.140;8.904;2022-07-29T19:00:58;21.50;99.90
11855;DHT22;5987;53.140;8.904;2022-07-29T19:04:03;21.60;99.90
11855;DHT22;5987;53.140;8.904;2022-07-29T19:07:07;21.70;99.90
11855;DHT22;5987;53.140;8.904;2022-07-29T19:10:12;21.70;99.90
11855;DHT22;5987;53.140;8.904;2022-07-29T19:13:16;21.70;99.90
11855;DHT22;5987;53.140;8.904;2022-07-29T19:16:20;21.70;99.90
11855;DHT22;5987;53.140;8.904;2022-07-29T19:19:23;21.60;99.90
11855;DHT22;5987;53.140;8.904;2022-07-29T19:22:27;21.60;99.90
11855;DHT22;5987;53.140;8.904;2022-07-29T19:25:32;21.50;99.90
11855;DHT22;5987;53.140;8.904;2022-07-29T19:28:36;21.50;99.90
11855;DHT22;5987;53.140;8.904;2022-07-29T19:31:41;21.50;99.90
11855;DHT22;5987;53.140;8.904;2022-07-29T19:34:45;21.40;99.90
11855;DHT22;5987;53.140;8.904;2022-07-29T19:38:09;21.50;99.90
11855;DHT22;5987;53.140;8.904;2022-07-29T19:41:14;21.40;99.90
11855;DHT22;5987;53.140;8.904;2022-07-29T19:44:18;21.30;99.90
11855;DHT22;5987;53.140;8.904;2022-07-29T19:47:22;21.10;99.90
11855;DHT22;5987;53.140;8.904;2022-07-29T19:50:26;21.00;99.90
11855;DHT22;5987;53.140;8.904;2022-07-29T19:53:29;21.10;99.90
11855;DHT22;5987;53.140;8.904;2022-07-29T19:56:35;21.00;99.90
11855;DHT22;5987;53.140;8.904;2022-07-29T19:59:43;21.00;99.90